Time;durP1;ratioP1;P1;durP2;ratioP2;P2;SDS_P1;SDS_P2;PMS_P1;PMS_P2;Temp;Humidity;BMP_temperature;BMP_pressure;BME280_temperature;BME280_humidity;BME280_pressure;Samples;Min_cycle;Max_cycle;Signal;HPM_P1;HPM_P2
2021/10/07 02:31:52;;;;;;;1.58;0.70;;;;;;;18.46;64.54;102515.66;3407583;23;20099;-85
2021/10/07 05:28:47;;;;;;;7.90;2.65;;;;;;;18.47;64.88;102646.91;2158665;23;20450;-84
2021/10/07 05:31:13;;;;;;;11.93;3.78;;;;;;;18.50;64.74;102654.75;4890874;29;20048;-82
2021/10/07 05:33:38;;;;;;;12.38;4.65;;;;;;;18.53;64.94;102657.44;4887555;29;20037;-79
2021/10/07 05:36:04;;;;;;;14.25;4.13;;;;;;;18.55;65.00;102650.47;4902426;29;20047;-82
2021/10/07 05:38:29;;;;;;;12.55;4.00;;;;;;;18.56;64.87;102660.06;4886816;29;20037;-82
2021/10/07 05:40:55;;;;;;;12.80;4.32;;;;;;;18.57;64.85;102658.34;4886126;29;20079;-82
2021/10/07 05:43:21;;;;;;;10.18;3.97;;;;;;;18.57;64.67;102667.03;4869444;29;20096;-81
2021/10/07 05:45:47;;;;;;;10.70;3.58;;;;;;;18.57;64.70;102669.63;4872468;29;20079;-83
2021/10/07 05:48:12;;;;;;;13.73;4.00;;;;;;;18.58;64.90;102668.81;4884435;29;20033;-82
2021/10/07 05:50:38;;;;;;;10.77;3.75;;;;;;;18.58;64.93;102675.75;4883237;29;20064;-82
2021/10/07 05:53:04;;;;;;;9.40;3.55;;;;;;;18.57;64.93;102667.03;4900960;29;20033;-85
2021/10/07 05:55:30;;;;;;;12.60;3.55;;;;;;;18.56;64.68;102667.91;4886034;29;20114;-82
2021/10/07 05:57:55;;;;;;;11.77;3.83;;;;;;;18.58;64.70;102675.75;4867828;29;20111;-82
2021/10/07 06:00:22;;;;;;;11.00;3.38;;;;;;;18.58;64.48;102678.34;4882611;29;20501;-81
2021/10/07 06:02:48;;;;;;;11.02;3.50;;;;;;;18.57;64.65;102680.06;4867546;29;20111;-81
2021/10/07 06:05:13;;;;;;;11.80;3.20;;;;;;;18.58;64.68;102686.19;4867778;29;20112;-81
2021/10/07 06:07:39;;;;;;;9.10;3.50;;;;;;;18.57;64.70;102693.09;4868060;29;20036;-82
2021/10/07 06:10:06;;;;;;;10.68;3.25;;;;;;;18.58;64.55;102692.25;4868417;29;20029;-84
2021/10/07 06:12:34;;;;;;;9.90;3.38;;;;;;;18.56;64.77;102693.97;4908235;29;20376;-84
2021/10/07 06:14:59;;;;;;;7.05;2.65;;;;;;;18.56;64.55;102696.56;4893291;29;20477;-86
2021/10/07 06:17:25;;;;;;;9.93;3.08;;;;;;;18.57;64.53;102707.88;4894755;29;20032;-85
2021/10/07 06:19:55;;;;;;;10.10;2.80;;;;;;;18.56;64.53;102704.41;4890337;29;20542;-84
2021/10/07 06:22:21;;;;;;;6.07;2.42;;;;;;;18.55;64.54;102705.22;4887737;29;20059;-80
2021/10/07 06:24:46;;;;;;;12.18;3.60;;;;;;;18.55;64.46;102702.63;4870926;29;20052;-83
2021/10/07 06:27:12;;;;;;;7.75;2.67;;;;;;;18.55;64.50;102707.84;4870685;29;20458;-83
2021/10/07 06:29:37;;;;;;;9.23;2.80;;;;;;;18.56;64.28;102717.44;4886099;29;20049;-82
2021/10/07 06:32:03;;;;;;;7.65;2.50;;;;;;;18.55;64.55;102715.66;4870050;29;20028;-82
2021/10/07 06:34:29;;;;;;;5.47;2.20;;;;;;;18.56;64.76;102717.44;4871545;29;20120;-84
2021/10/07 06:36:54;;;;;;;7.50;3.00;;;;;;;18.56;64.56;102717.44;4874210;29;20039;-83
2021/10/07 06:39:20;;;;;;;6.88;2.70;;;;;;;18.57;64.45;102718.31;4879172;29;20485;-83
2021/10/07 06:41:47;;;;;;;8.38;2.58;;;;;;;18.57;64.49;102723.53;4876121;29;20462;-84
2021/10/07 06:44:13;;;;;;;6.32;2.80;;;;;;;18.57;64.43;102724.38;4873920;29;20537;-81
2021/10/07 06:46:38;;;;;;;7.85;2.70;;;;;;;18.59;64.41;102716.59;4890127;29;20036;-83
2021/10/07 06:49:03;;;;;;;9.10;2.67;;;;;;;18.61;64.19;102728.81;4903323;29;20036;-84
2021/10/07 06:51:29;;;;;;;8.02;2.55;;;;;;;18.63;64.27;102727.09;4870703;29;20032;-84
2021/10/07 06:53:57;;;;;;;5.22;2.55;;;;;;;18.66;64.30;102728.88;4870662;29;20032;-83
2021/10/07 06:56:24;;;;;;;8.15;2.70;;;;;;;18.67;64.04;102736.72;4885942;29;20036;-81
2021/10/07 06:58:52;;;;;;;6.85;2.67;;;;;;;18.68;63.98;102735.91;4870120;29;20032;-82
2021/10/07 07:01:22;;;;;;;6.68;2.75;;;;;;;18.70;63.94;102743.72;4901605;29;20492;-83
2021/10/07 07:03:50;;;;;;;6.60;2.55;;;;;;;18.71;63.78;102741.16;4869393;29;20040;-85
2021/10/07 07:06:16;;;;;;;5.38;2.30;;;;;;;18.69;63.78;102750.69;4884467;29;20024;-83
2021/10/07 07:08:42;;;;;;;6.03;2.63;;;;;;;18.71;63.76;102742.88;4869019;29;20123;-82
2021/10/07 07:11:07;;;;;;;6.47;2.78;;;;;;;18.71;63.93;102745.50;4868897;29;20123;-80
2021/10/07 07:13:33;;;;;;;6.55;2.40;;;;;;;18.73;63.99;102753.31;4884307;29;20033;-83
2021/10/07 07:15:58;;;;;;;8.88;2.30;;;;;;;18.73;63.99;102749.00;4868864;29;20460;-82
2021/10/07 07:18:23;;;;;;;8.60;2.60;;;;;;;18.74;63.86;102755.09;4868565;29;20037;-83
2021/10/07 07:20:49;;;;;;;5.90;2.47;;;;;;;18.75;64.00;102754.22;4883818;29;20028;-84
2021/10/07 07:23:15;;;;;;;5.75;2.72;;;;;;;18.75;63.82;102759.44;4883902;29;20029;-83
2021/10/07 07:25:41;;;;;;;7.90;2.72;;;;;;;18.73;63.93;102756.84;4883783;29;20032;-83
2021/10/07 07:28:06;;;;;;;5.82;2.45;;;;;;;18.75;64.07;102768.16;4883923;29;20025;-81
2021/10/07 07:30:32;;;;;;;6.38;2.47;;;;;;;18.73;64.08;102759.44;4883633;29;20061;-81
2021/10/07 07:32:57;;;;;;;5.65;2.70;;;;;;;18.74;64.04;102768.13;4884042;29;20029;-82
2021/10/07 07:35:24;;;;;;;6.30;2.30;;;;;;;18.71;63.95;102772.44;4883855;29;20024;-81
2021/10/07 07:37:50;;;;;;;7.50;2.40;;;;;;;18.71;64.00;102776.78;4883682;29;20123;-81
2021/10/07 07:40:15;;;;;;;6.53;2.67;;;;;;;18.72;64.05;102775.91;4868232;29;20550;-81
2021/10/07 07:42:40;;;;;;;7.47;3.05;;;;;;;18.74;64.04;102781.16;4868042;29;20088;-81
2021/10/07 07:45:08;;;;;;;5.30;2.20;;;;;;;18.77;64.01;102781.22;4868064;29;20033;-81
2021/10/07 07:47:33;;;;;;;6.97;2.55;;;;;;;18.82;63.75;102787.44;4868233;29;20474;-81
2021/10/07 07:49:58;;;;;;;5.93;2.85;;;;;;;18.85;63.57;102785.72;4883519;29;20092;-81
2021/10/07 07:52:24;;;;;;;4.53;2.22;;;;;;;18.89;63.57;102781.44;4869157;29;20029;-83
2021/10/07 07:54:50;;;;;;;5.05;2.40;;;;;;;18.90;63.56;102788.41;4873535;29;20041;-84
2021/10/07 07:57:16;;;;;;;5.38;2.45;;;;;;;18.94;63.48;102787.59;4889844;29;20123;-84
2021/10/07 07:59:41;;;;;;;5.75;2.20;;;;;;;18.98;63.27;102796.38;4872864;29;20123;-81
2021/10/07 08:02:07;;;;;;;5.47;2.33;;;;;;;18.95;63.48;102802.44;4870814;29;20111;-82
2021/10/07 08:04:32;;;;;;;5.45;2.50;;;;;;;18.95;63.34;102791.13;4868201;29;20429;-83
2021/10/07 08:06:59;;;;;;;6.20;2.42;;;;;;;18.96;63.10;102811.13;4867931;29;20094;-80
2021/10/07 08:09:26;;;;;;;5.68;2.25;;;;;;;18.93;63.42;102809.34;4867767;29;20044;-79
2021/10/07 08:11:51;;;;;;;4.70;2.10;;;;;;;18.94;63.63;102818.03;4883166;29;20111;-80
2021/10/07 08:14:17;;;;;;;4.80;2.20;;;;;;;18.91;63.55;102811.94;4883205;29;20127;-79
2021/10/07 08:16:42;;;;;;;5.18;2.40;;;;;;;18.92;63.48;102812.78;4867713;29;20036;-80
2021/10/07 08:19:08;;;;;;;4.70;2.25;;;;;;;18.93;63.66;102811.09;4882814;29;20043;-79
2021/10/07 08:21:33;;;;;;;6.15;2.50;;;;;;;18.95;63.69;102809.38;4883248;29;20390;-84
2021/10/07 08:24:04;;;;;;;4.40;2.20;;;;;;;18.94;63.37;102811.09;4867436;29;20449;-82
2021/10/07 08:26:30;;;;;;;5.28;2.30;;;;;;;18.96;63.41;102804.16;4868074;29;20092;-83
2021/10/07 08:28:55;;;;;;;5.18;2.15;;;;;;;18.96;63.56;102809.38;4867045;29;20502;-82
2021/10/07 08:31:21;;;;;;;4.20;2.30;;;;;;;18.98;63.27;102802.47;4867132;29;20043;-83
2021/10/07 08:33:46;;;;;;;5.80;2.25;;;;;;;19.00;63.41;102808.59;4882202;29;20474;-83
2021/10/07 08:36:12;;;;;;;5.75;2.03;;;;;;;19.01;63.62;102810.34;4882794;29;20028;-83
2021/10/07 08:38:37;;;;;;;5.03;2.13;;;;;;;19.04;63.31;102818.22;4882483;29;20071;-82
2021/10/07 08:41:02;;;;;;;4.60;2.30;;;;;;;19.04;63.14;102818.22;4867084;29;20081;-84
2021/10/07 08:43:28;;;;;;;4.15;2.00;;;;;;;19.08;63.28;102821.78;4882741;29;20394;-83
2021/10/07 08:45:54;;;;;;;5.18;2.22;;;;;;;19.10;63.16;102820.94;4867825;29;20036;-83
2021/10/07 08:48:19;;;;;;;5.53;1.90;;;;;;;19.14;62.92;102819.25;4868128;29;20032;-82
2021/10/07 08:50:45;;;;;;;4.43;1.95;;;;;;;19.20;62.88;102827.16;4882764;29;20028;-83
2021/10/07 08:53:10;;;;;;;5.10;2.10;;;;;;;19.23;62.70;102826.34;4866862;29;20051;-82
2021/10/07 08:55:36;;;;;;;3.97;2.20;;;;;;;19.24;62.80;102835.91;4867567;29;20052;-83
2021/10/07 08:58:01;;;;;;;6.55;1.85;;;;;;;19.18;62.99;102831.47;4883113;29;20080;-82
2021/10/07 09:00:27;;;;;;;4.57;2.05;;;;;;;19.17;63.10;102828.88;4866958;29;20385;-83
2021/10/07 09:02:52;;;;;;;3.85;2.00;;;;;;;19.14;62.78;102829.69;4866604;29;20084;-82
2021/10/07 09:05:26;;;;;;;5.03;1.80;;;;;;;19.14;63.02;102836.63;4882232;29;20389;-83
2021/10/07 09:07:57;;;;;;;3.80;2.00;;;;;;;19.13;63.23;102838.38;4883086;29;20033;-82
2021/10/07 09:10:49;;;;;;;3.72;1.92;;;;;;;19.14;63.00;102847.97;4897701;29;20134;-84
2021/10/07 09:13:22;;;;;;;3.72;1.90;;;;;;;19.16;62.93;102829.69;4900467;29;20052;-84
2021/10/07 09:15:50;;;;;;;3.38;1.80;;;;;;;19.19;62.94;102832.38;4901348;29;20028;-83
2021/10/07 09:18:17;;;;;;;4.03;1.60;;;;;;;19.19;63.07;102832.38;4898989;29;20104;-86
2021/10/07 09:20:47;;;;;;;4.10;1.98;;;;;;;19.21;62.81;102828.94;4867832;29;20032;-85
2021/10/07 09:23:20;;;;;;;4.20;1.80;;;;;;;19.21;62.75;102839.38;4883452;29;20017;-83
2021/10/07 09:26:03;;;;;;;3.63;1.75;;;;;;;19.25;62.79;102829.84;4899270;29;20040;-84
2021/10/07 09:28:48;;;;;;;3.57;2.00;;;;;;;19.24;62.72;102826.34;4882063;29;20047;-83
2021/10/07 09:31:14;;;;;;;2.83;1.80;;;;;;;19.23;62.72;102832.44;4898794;29;20753;-83
2021/10/07 09:33:42;;;;;;;3.35;1.70;;;;;;;19.18;63.00;102835.81;4881672;29;20055;-83
2021/10/07 09:36:18;;;;;;;3.35;1.50;;;;;;;19.15;63.13;102831.44;4881723;29;20052;-83
2021/10/07 09:38:48;;;;;;;4.18;1.70;;;;;;;19.11;63.11;102834.84;4881844;29;20035;-84
2021/10/07 09:41:32;;;;;;;4.88;1.88;;;;;;;19.11;63.21;102838.34;4881775;29;20474;-84
2021/10/07 09:44:01;;;;;;;2.65;1.50;;;;;;;19.12;63.19;102836.63;4866408;29;20098;-84
2021/10/07 09:46:40;;;;;;;3.80;1.80;;;;;;;19.13;63.11;102835.75;4885897;29;20060;-86
2021/10/07 09:49:20;;;;;;;3.33;1.48;;;;;;;19.13;63.14;102833.16;4885878;29;20029;-85
2021/10/07 09:51:51;;;;;;;4.80;1.90;;;;;;;19.15;63.11;102833.19;4885580;29;20032;-84
2021/10/07 09:54:18;;;;;;;3.30;1.65;;;;;;;19.17;63.07;102834.94;4886503;29;20037;-84
2021/10/07 09:56:56;;;;;;;3.35;1.55;;;;;;;19.15;62.97;102836.66;4885615;29;20533;-83
2021/10/07 09:59:22;;;;;;;2.85;1.60;;;;;;;19.19;62.96;102837.59;4885485;29;20029;-84
2021/10/07 10:01:48;;;;;;;2.70;1.38;;;;;;;19.21;62.78;102836.75;4870042;29;20039;-84
2021/10/07 10:04:14;;;;;;;3.58;1.75;;;;;;;19.23;62.77;102842.00;4869665;29;20393;-85
2021/10/07 10:06:40;;;;;;;4.45;1.65;;;;;;;19.19;62.90;102845.44;4869990;29;20465;-84
2021/10/07 10:09:06;;;;;;;2.92;1.50;;;;;;;19.15;63.10;102839.28;4885281;29;20039;-85
2021/10/07 10:11:33;;;;;;;3.47;1.80;;;;;;;19.09;63.21;102847.88;4885257;29;20500;-85
2021/10/07 10:13:58;;;;;;;3.15;1.60;;;;;;;19.06;63.22;102849.56;4884998;29;20042;-85
2021/10/07 10:16:25;;;;;;;2.97;1.48;;;;;;;19.02;63.40;102845.16;4885132;29;20029;-84
2021/10/07 10:18:55;;;;;;;2.90;1.35;;;;;;;18.99;63.44;102845.06;4885095;29;20028;-83
2021/10/07 10:21:22;;;;;;;3.40;1.60;;;;;;;18.97;63.65;102839.84;4885270;29;20111;-84
2021/10/07 10:23:48;;;;;;;2.50;1.35;;;;;;;18.96;63.52;102852.88;4902385;29;20028;-83
2021/10/07 10:26:14;;;;;;;3.17;1.63;;;;;;;18.95;63.74;102846.78;4903642;29;20035;-87
2021/10/07 10:28:45;;;;;;;2.60;1.30;;;;;;;18.94;63.57;102847.63;4890835;29;20024;-84
2021/10/07 10:31:32;;;;;;;3.38;1.40;;;;;;;18.95;63.51;102849.38;4891895;29;20481;-85
2021/10/07 10:34:18;;;;;;;1.83;1.38;;;;;;;18.96;63.51;102851.13;4886979;29;20033;-85
2021/10/07 10:36:57;;;;;;;2.92;1.20;;;;;;;18.95;63.22;102849.38;4885765;29;20051;-84
2021/10/07 10:39:29;;;;;;;3.45;1.40;;;;;;;18.96;63.43;102851.13;4887736;29;20374;-85
2021/10/07 10:41:59;;;;;;;3.17;1.55;;;;;;;18.97;63.58;102858.13;4885507;29;20029;-80
2021/10/07 10:44:28;;;;;;;4.57;1.30;;;;;;;18.98;63.46;102856.38;4885034;29;20035;-81
2021/10/07 10:47:05;;;;;;;4.80;1.60;;;;;;;18.98;63.57;102862.47;4884943;29;20025;-86
2021/10/07 10:49:40;;;;;;;3.10;1.50;;;;;;;18.99;63.55;102848.59;4885390;29;20024;-83
2021/10/07 10:52:14;;;;;;;2.33;1.42;;;;;;;19.01;63.56;102857.31;4884652;29;20039;-83
2021/10/07 10:54:45;;;;;;;4.47;1.60;;;;;;;19.01;63.47;102849.50;4901292;29;20473;-84
2021/10/07 10:57:26;;;;;;;2.25;1.40;;;;;;;19.01;63.73;102857.31;4883977;29;20122;-82
2021/10/07 11:00:11;;;;;;;3.05;1.55;;;;;;;19.02;63.59;102858.19;4884441;29;20414;-82
2021/10/07 11:02:39;;;;;;;3.80;1.63;;;;;;;19.05;63.51;102864.34;4901329;29;20056;-83
2021/10/07 11:05:25;;;;;;;2.35;1.35;;;;;;;19.04;63.46;102870.41;4901550;29;20027;-82
2021/10/07 11:08:09;;;;;;;2.85;1.40;;;;;;;19.05;63.35;102860.84;4884279;29;20513;-82
2021/10/07 11:10:42;;;;;;;2.53;1.15;;;;;;;19.06;63.37;102873.06;4900943;29;20033;-82
2021/10/07 11:13:14;;;;;;;;;;;;;;;19.05;63.39;102866.97;4884777;29;20367;-82
2021/10/07 11:15:39;;;;;;;3.25;1.60;;;;;;;19.07;63.42;102874.78;4900950;29;19911;-82
2021/10/07 11:18:05;;;;;;;2.33;1.27;;;;;;;19.07;63.20;102880.00;4900799;29;20145;-82
2021/10/07 11:20:33;;;;;;;4.45;1.58;;;;;;;19.06;63.25;102879.16;4884166;29;20036;-82
2021/10/07 11:23:12;;;;;;;1.80;1.30;;;;;;;19.05;63.42;102876.50;4900765;29;20028;-81
2021/10/07 11:25:40;;;;;;;1.83;1.30;;;;;;;19.05;63.31;102873.88;4883706;29;20053;-84
2021/10/07 11:28:06;;;;;;;2.95;1.35;;;;;;;19.05;63.28;102873.88;4900634;29;20431;-80
2021/10/07 11:30:35;;;;;;;2.47;1.10;;;;;;;19.06;63.26;102878.28;4883694;29;20056;-80
2021/10/07 11:33:02;;;;;;;2.70;1.40;;;;;;;19.04;63.25;102880.84;4883630;29;20137;-81
2021/10/07 11:35:28;;;;;;;3.83;1.40;;;;;;;19.06;63.36;102881.75;4884138;29;20059;-80
2021/10/07 11:37:57;;;;;;;2.42;1.40;;;;;;;19.04;63.37;102879.97;4883610;29;20021;-80
2021/10/07 11:40:26;;;;;;;2.28;1.00;;;;;;;19.03;63.33;102883.41;4891930;29;20025;-81
2021/10/07 11:42:53;;;;;;;2.83;1.20;;;;;;;19.04;63.33;102885.19;4907446;29;20021;-80
2021/10/07 11:45:21;;;;;;;2.60;1.40;;;;;;;19.04;63.53;102877.38;4886615;29;20283;-80
2021/10/07 11:47:47;;;;;;;1.98;1.25;;;;;;;19.06;63.26;102880.88;4884102;29;20028;-80
2021/10/07 11:50:14;;;;;;;2.13;1.17;;;;;;;19.07;63.52;102887.84;4883975;29;20065;-81
2021/10/07 11:52:40;;;;;;;2.35;1.40;;;;;;;19.06;63.26;102889.59;4883751;29;20033;-80
2021/10/07 11:55:05;;;;;;;2.83;1.17;;;;;;;19.07;63.21;102883.50;4868306;29;20043;-80
2021/10/07 11:57:32;;;;;;;2.58;1.27;;;;;;;19.10;63.16;102887.91;4885231;29;20033;-81
2021/10/07 11:59:58;;;;;;;2.13;1.20;;;;;;;19.10;63.07;102887.91;4870100;29;20032;-81
2021/10/07 12:02:23;;;;;;;2.80;1.20;;;;;;;19.09;63.01;102873.09;4885045;29;20593;-80
2021/10/07 12:04:48;;;;;;;2.55;1.30;;;;;;;19.09;63.16;102878.31;4868589;29;20549;-80
2021/10/07 12:07:14;;;;;;;2.45;1.38;;;;;;;19.10;63.10;102875.72;4867230;29;20477;-80
2021/10/07 12:09:43;;;;;;;3.10;1.40;;;;;;;19.10;63.28;102872.25;4883176;29;20028;-80
2021/10/07 12:12:10;;;;;;;2.45;1.33;;;;;;;19.10;63.20;102873.13;4867955;29;20036;-80
2021/10/07 12:14:35;;;;;;;1.88;1.10;;;;;;;19.10;63.16;102870.50;4883253;29;20036;-80
2021/10/07 12:17:01;;;;;;;2.33;1.20;;;;;;;19.11;63.12;102874.00;4899783;29;20029;-81
2021/10/07 12:19:27;;;;;;;2.75;1.27;;;;;;;19.10;63.32;102869.66;4867698;29;20042;-81
2021/10/07 12:22:00;;;;;;;2.17;1.10;;;;;;;19.13;63.30;102868.81;4899863;29;20048;-80
2021/10/07 12:24:32;;;;;;;2.13;1.20;;;;;;;19.12;63.15;102867.94;4868054;29;20485;-80
2021/10/07 12:27:00;;;;;;;2.58;1.05;;;;;;;19.13;63.34;102866.19;4882842;29;20071;-80
2021/10/07 12:29:28;;;;;;;3.28;1.17;;;;;;;19.13;63.13;102867.06;4852021;29;20454;-80
2021/10/07 12:32:13;;;;;;;2.08;0.95;;;;;;;19.15;63.25;102861.88;4867113;29;20045;-80
2021/10/07 12:34:41;;;;;;;4.30;1.10;;;;;;;19.15;63.27;102865.38;4882663;29;20045;-82
2021/10/07 12:37:11;;;;;;;1.60;1.00;;;;;;;19.15;63.21;102865.38;4882708;29;20473;-83
2021/10/07 12:39:39;;;;;;;1.70;1.10;;;;;;;19.17;63.17;102865.41;4882669;29;20139;-83
2021/10/07 12:42:18;;;;;;;2.97;1.30;;;;;;;19.18;63.32;102862.78;4899452;29;20039;-82
2021/10/07 12:44:51;;;;;;;2.38;1.20;;;;;;;19.20;63.25;102865.44;4899431;29;20052;-82
2021/10/07 12:47:27;;;;;;;3.08;1.10;;;;;;;19.20;63.38;102860.22;4882416;29;20021;-82
2021/10/07 12:49:53;;;;;;;1.98;1.10;;;;;;;19.21;63.34;102859.38;4882354;29;20033;-82
2021/10/07 12:52:41;;;;;;;2.42;1.08;;;;;;;19.22;63.27;102866.34;4882618;29;20044;-82
2021/10/07 12:55:07;;;;;;;1.80;1.13;;;;;;;19.24;63.25;102856.81;4882239;29;20063;-82
2021/10/07 12:57:47;;;;;;;2.58;1.20;;;;;;;19.24;62.99;102862.03;4883237;29;20127;-82
2021/10/07 13:00:25;;;;;;;3.22;1.40;;;;;;;19.25;63.26;102863.75;4885988;29;20024;-83
2021/10/07 13:02:52;;;;;;;2.35;1.10;;;;;;;19.26;63.24;102868.16;4888239;29;20036;-82
2021/10/07 13:05:27;;;;;;;2.20;1.10;;;;;;;19.26;63.33;102868.16;4876003;29;20029;-82
2021/10/07 13:07:56;;;;;;;2.90;1.23;;;;;;;19.28;63.11;102869.06;4892199;29;20028;-82
2021/10/07 13:10:22;;;;;;;1.80;1.10;;;;;;;19.29;63.10;102860.34;4885639;29;20029;-83
2021/10/07 13:12:48;;;;;;;1.92;1.20;;;;;;;19.28;63.16;102872.53;4888942;29;20505;-81
2021/10/07 13:15:14;;;;;;;2.05;1.10;;;;;;;19.28;63.22;102866.44;4868388;29;20043;-82
2021/10/07 13:17:40;;;;;;;2.20;1.20;;;;;;;19.27;63.28;102870.78;4883477;29;20024;-82
2021/10/07 13:20:07;;;;;;;2.42;1.17;;;;;;;19.26;63.25;102870.75;4869348;29;20453;-82
2021/10/07 13:22:33;;;;;;;2.38;1.23;;;;;;;19.28;63.25;102877.75;4868748;29;20032;-83
2021/10/07 13:24:59;;;;;;;1.63;1.00;;;;;;;19.26;63.21;102871.63;4883041;29;20033;-82
2021/10/07 13:27:24;;;;;;;2.97;1.00;;;;;;;19.25;63.10;102871.59;4867043;29;20040;-81
2021/10/07 13:29:53;;;;;;;3.30;1.25;;;;;;;19.25;63.22;102882.03;4882215;29;20048;-84
2021/10/07 13:32:20;;;;;;;4.43;1.20;;;;;;;19.23;63.33;102874.22;4867045;29;20493;-81
2021/10/07 13:34:46;;;;;;;1.98;1.20;;;;;;;19.23;63.05;102871.59;4882380;29;20120;-80
2021/10/07 13:37:13;;;;;;;1.83;1.10;;;;;;;19.23;63.11;102874.22;4882215;29;20031;-82
2021/10/07 13:39:38;;;;;;;1.67;1.10;;;;;;;19.22;63.37;102874.16;4866737;29;20033;-82
2021/10/07 13:42:04;;;;;;;2.03;1.20;;;;;;;19.22;63.22;102874.16;4866438;29;20028;-79
2021/10/07 13:44:29;;;;;;;1.92;1.00;;;;;;;19.22;63.26;102874.16;4881549;29;20024;-79
2021/10/07 13:46:55;;;;;;;2.05;1.10;;;;;;;19.21;62.94;102883.75;4866200;29;20101;-79
2021/10/07 13:49:20;;;;;;;3.40;1.05;;;;;;;19.21;63.10;102880.25;4881913;29;20064;-79
2021/10/07 13:51:46;;;;;;;1.92;1.25;;;;;;;19.22;63.30;102882.00;4881763;29;20032;-79
2021/10/07 13:54:11;;;;;;;1.90;1.15;;;;;;;19.21;63.12;102878.53;4881578;29;20397;-79
2021/10/07 13:56:37;;;;;;;2.17;0.93;;;;;;;19.21;63.19;102888.97;4866093;29;20046;-79
2021/10/07 13:59:02;;;;;;;3.05;1.20;;;;;;;19.22;63.21;102879.38;4866008;29;20485;-79
2021/10/07 14:01:27;;;;;;;1.75;1.15;;;;;;;19.21;63.23;102881.13;4881576;29;20093;-79
2021/10/07 14:03:53;;;;;;;1.60;1.00;;;;;;;19.20;63.23;102884.56;4866239;29;20031;-79
2021/10/07 14:06:19;;;;;;;2.10;1.17;;;;;;;19.21;63.03;102883.75;4898361;29;20036;-79
2021/10/07 14:08:45;;;;;;;2.00;1.20;;;;;;;19.20;63.38;102887.19;4866361;29;20033;-79
2021/10/07 14:11:10;;;;;;;2.28;1.08;;;;;;;19.20;63.25;102889.78;4870565;29;20482;-80
2021/10/07 14:13:37;;;;;;;3.35;1.20;;;;;;;19.21;63.33;102890.69;4869339;29;20382;-79
2021/10/07 14:16:04;;;;;;;2.08;1.10;;;;;;;19.20;63.18;102886.31;4881798;29;20068;-79
2021/10/07 14:18:30;;;;;;;1.63;1.10;;;;;;;19.19;63.41;102887.19;4881831;29;20025;-79
2021/10/07 14:20:56;;;;;;;5.53;1.10;;;;;;;19.19;63.32;102892.41;4866162;29;20093;-79
2021/10/07 14:23:21;;;;;;;1.92;1.10;;;;;;;19.19;63.20;102890.66;4851141;29;20020;-79
2021/10/07 14:25:47;;;;;;;2.78;1.20;;;;;;;19.18;63.47;102901.06;4881652;29;20025;-80
2021/10/07 14:28:13;;;;;;;2.03;1.10;;;;;;;19.17;63.22;102896.72;4881459;29;20051;-79
2021/10/07 14:30:38;;;;;;;2.42;1.10;;;;;;;19.17;63.38;102899.34;4882227;29;20505;-79
2021/10/07 14:33:05;;;;;;;3.05;1.20;;;;;;;19.17;63.29;102899.34;4869372;29;20055;-80
2021/10/07 14:35:31;;;;;;;2.20;0.95;;;;;;;19.17;63.34;102901.94;4869468;29;20533;-79
2021/10/07 14:37:56;;;;;;;1.25;0.80;;;;;;;19.16;63.35;102900.16;4884924;29;20128;-79
2021/10/07 14:40:24;;;;;;;2.33;1.00;;;;;;;19.15;63.76;102895.81;4869421;29;20024;-79
2021/10/07 14:42:50;;;;;;;1.80;1.10;;;;;;;19.16;63.30;102900.16;4885186;29;20111;-79
2021/10/07 14:45:16;;;;;;;3.30;1.10;;;;;;;19.15;63.46;102901.91;4884825;29;20024;-80
2021/10/07 14:47:42;;;;;;;1.70;1.00;;;;;;;19.15;63.50;102899.28;4901294;29;20062;-80
2021/10/07 14:50:08;;;;;;;2.67;1.00;;;;;;;19.16;63.49;102906.25;4884573;29;20112;-79
2021/10/07 14:52:36;;;;;;;2.17;1.00;;;;;;;19.14;63.26;102899.25;4864375;29;20518;-80
2021/10/07 14:55:07;;;;;;;1.80;1.10;;;;;;;19.15;63.50;102903.66;4883947;29;20029;-81
2021/10/07 14:57:32;;;;;;;1.42;1.13;;;;;;;19.15;63.52;102901.91;4886677;29;20057;-79
2021/10/07 14:59:58;;;;;;;1.52;1.20;;;;;;;19.15;63.36;102907.13;4884041;29;20032;-80
2021/10/07 15:02:23;;;;;;;3.15;1.08;;;;;;;19.14;63.25;102902.78;4900457;29;20043;-81
2021/10/07 15:04:49;;;;;;;2.85;1.27;;;;;;;19.14;63.55;102902.78;4868873;29;20482;-80
2021/10/07 15:07:15;;;;;;;1.50;1.00;;;;;;;19.14;63.51;102909.69;4867541;29;20041;-84
2021/10/07 15:09:41;;;;;;;2.58;1.05;;;;;;;19.13;63.59;102910.56;4886042;29;20043;-80
2021/10/07 15:12:06;;;;;;;1.80;1.13;;;;;;;19.11;63.47;102914.00;4885727;29;20033;-79
2021/10/07 15:14:32;;;;;;;1.88;0.90;;;;;;;19.11;63.51;102916.63;4882907;29;20044;-80
2021/10/07 15:17:01;;;;;;;2.15;1.20;;;;;;;19.10;63.46;102917.50;4895382;29;20025;-79
2021/10/07 15:19:27;;;;;;;1.70;1.05;;;;;;;19.10;63.46;102916.63;4862726;29;20116;-79
2021/10/07 15:21:53;;;;;;;1.70;0.98;;;;;;;19.09;63.48;102914.84;4893610;29;20093;-78
2021/10/07 15:24:18;;;;;;;1.92;1.00;;;;;;;19.08;63.73;102919.19;4900812;29;20029;-79
2021/10/07 15:26:44;;;;;;;2.20;1.27;;;;;;;19.06;63.78;102915.69;4866632;29;20158;-78
2021/10/07 15:29:10;;;;;;;1.38;0.80;;;;;;;19.06;63.55;102918.28;4862813;29;20401;-78
2021/10/07 15:31:36;;;;;;;3.28;1.20;;;;;;;19.06;63.71;102918.28;4863272;29;20045;-78
2021/10/07 15:34:01;;;;;;;1.63;0.85;;;;;;;19.08;63.55;102913.09;4866855;29;20091;-80
2021/10/07 15:36:27;;;;;;;2.30;1.00;;;;;;;19.07;63.88;102917.41;4846998;29;20465;-80
2021/10/07 15:38:53;;;;;;;2.30;1.08;;;;;;;19.09;63.68;102914.84;4881983;29;20033;-79
2021/10/07 15:41:18;;;;;;;5.57;1.17;;;;;;;19.08;63.66;102924.41;4883868;29;20033;-80
2021/10/07 15:43:44;;;;;;;6.85;1.00;;;;;;;19.10;63.79;102916.63;4854338;29;20120;-80
2021/10/07 15:46:10;;;;;;;6.88;1.20;;;;;;;19.08;63.81;102924.41;4872450;29;20067;-79
2021/10/07 15:48:35;;;;;;;2.65;1.10;;;;;;;19.08;63.63;102921.81;4868575;29;20040;-79
2021/10/07 15:51:02;;;;;;;5.32;1.10;;;;;;;19.10;63.87;102921.84;4868246;29;20123;-79
2021/10/07 15:53:27;;;;;;;2.42;1.13;;;;;;;19.10;63.79;102921.84;4867972;29;20041;-80
2021/10/07 15:55:53;;;;;;;1.80;1.00;;;;;;;19.10;63.67;102920.09;4879190;29;20124;-80
2021/10/07 15:58:18;;;;;;;6.28;1.35;;;;;;;19.10;63.82;102912.28;4880519;29;20040;-80
2021/10/07 16:00:44;;;;;;;2.55;0.95;;;;;;;19.10;63.88;102920.09;4845274;29;20032;-80
2021/10/07 16:03:12;;;;;;;1.60;1.00;;;;;;;19.11;63.51;102927.06;4867690;29;20041;-79
2021/10/07 16:05:38;;;;;;;2.70;1.20;;;;;;;19.10;63.83;102927.94;4883400;29;20028;-81
2021/10/07 16:08:04;;;;;;;2.22;1.00;;;;;;;19.10;63.57;102934.88;4849031;29;20088;-80
2021/10/07 16:10:30;;;;;;;2.00;1.30;;;;;;;19.10;63.65;102935.75;4859759;29;20105;-81
2021/10/07 16:12:55;;;;;;;1.63;0.82;;;;;;;19.10;63.85;102937.50;4849522;29;20049;-85
2021/10/07 16:15:20;;;;;;;1.90;1.13;;;;;;;19.08;63.75;102937.47;4864849;29;20115;-80
2021/10/07 16:17:46;;;;;;;2.17;1.10;;;;;;;19.08;63.89;102940.06;4861244;29;20060;-80
2021/10/07 16:20:11;;;;;;;1.75;1.10;;;;;;;19.09;63.78;102938.34;4867540;29;20123;-78
2021/10/07 16:22:37;;;;;;;2.55;0.98;;;;;;;19.09;63.86;102941.81;4861590;29;20033;-77
2021/10/07 16:25:04;;;;;;;4.53;0.90;;;;;;;19.09;63.61;102935.72;4880836;29;20021;-81
2021/10/07 16:27:30;;;;;;;1.83;1.00;;;;;;;19.08;63.90;102942.69;4874266;29;20040;-80
2021/10/07 16:29:56;;;;;;;2.13;1.00;;;;;;;19.08;63.92;102950.50;4879830;29;20068;-80
2021/10/07 16:32:22;;;;;;;2.83;1.00;;;;;;;19.07;63.75;102943.50;4863702;29;20029;-79
2021/10/07 16:34:47;;;;;;;2.25;1.27;;;;;;;19.07;63.73;102948.72;4863966;29;20088;-80
2021/10/07 16:37:13;;;;;;;4.60;1.17;;;;;;;19.07;63.96;102953.09;4839839;29;20036;-79
2021/10/07 16:39:39;;;;;;;1.98;1.02;;;;;;;19.06;63.79;102959.16;4874429;29;20039;-79
2021/10/07 16:42:04;;;;;;;1.48;0.80;;;;;;;19.05;63.92;102957.38;4886976;29;20028;-81
2021/10/07 16:44:30;;;;;;;2.83;0.93;;;;;;;19.04;64.00;102956.53;4893195;29;20138;-84
2021/10/07 16:46:55;;;;;;;2.00;0.98;;;;;;;19.03;63.96;102960.00;4852910;29;20033;-79
2021/10/07 16:49:20;;;;;;;2.47;1.20;;;;;;;19.04;63.77;102963.47;4848645;29;20056;-79
2021/10/07 16:51:46;;;;;;;2.42;1.00;;;;;;;19.04;64.12;102966.97;4848537;29;20037;-80